Time;durP1;ratioP1;P1;durP2;ratioP2;P2;SDS_P1;SDS_P2;PMS_P1;PMS_P2;Temp;Humidity;BMP_temperature;BMP_pressure;BME280_temperature;BME280_humidity;BME280_pressure;Samples;Min_cycle;Max_cycle;Signal;HPM_P1;HPM_P2
2021/09/03 00:01:20;;;;;;;17.98;15.73;;;12.50;99.90;;;;;;5057781;28;20209;-71
2021/09/03 00:03:49;;;;;;;18.65;16.17;;;12.40;99.90;;;;;;5047256;28;20212;-71
2021/09/03 00:06:15;;;;;;;19.17;17.17;;;12.40;99.90;;;;;;5046524;28;20663;-71
2021/09/03 00:08:42;;;;;;;19.23;16.73;;;12.40;99.90;;;;;;5046215;28;20249;-71
2021/09/03 00:11:10;;;;;;;21.65;15.93;;;12.40;99.90;;;;;;5047429;28;20209;-70
2021/09/03 00:13:37;;;;;;;20.70;16.00;;;12.20;99.90;;;;;;5053308;28;20201;-71
2021/09/03 00:16:05;;;;;;;18.25;16.30;;;12.20;99.90;;;;;;5049781;28;20209;-71
2021/09/03 00:18:31;;;;;;;18.00;16.02;;;12.20;99.90;;;;;;5046902;28;20198;-71
2021/09/03 00:20:59;;;;;;;21.75;15.27;;;12.10;99.90;;;;;;5047095;28;20220;-71
2021/09/03 00:23:26;;;;;;;21.17;16.05;;;12.10;99.90;;;;;;5047071;28;20307;-71
2021/09/03 00:25:53;;;;;;;17.20;15.15;;;12.10;99.90;;;;;;5045999;28;20220;-71
2021/09/03 00:28:20;;;;;;;19.85;17.77;;;12.20;99.90;;;;;;5046657;28;20320;-71
2021/09/03 00:30:47;;;;;;;19.48;17.38;;;12.10;99.90;;;;;;5054610;28;20207;-71
2021/09/03 00:33:14;;;;;;;18.58;16.80;;;12.10;99.90;;;;;;5067102;28;20205;-71
2021/09/03 00:35:41;;;;;;;21.10;17.92;;;12.10;99.90;;;;;;5067207;28;20288;-70
2021/09/03 00:38:09;;;;;;;23.98;18.05;;;12.00;99.90;;;;;;5066877;28;20240;-71
2021/09/03 00:40:36;;;;;;;17.55;15.57;;;12.00;99.90;;;;;;5067212;28;20196;-70
2021/09/03 00:43:03;;;;;;;21.30;18.77;;;11.90;99.90;;;;;;5063403;28;20300;-71
2021/09/03 00:45:29;;;;;;;20.02;16.67;;;11.90;99.90;;;;;;5046513;28;20296;-71
2021/09/03 00:47:56;;;;;;;18.67;16.70;;;11.90;99.90;;;;;;5054755;28;20229;-71
2021/09/03 00:50:24;;;;;;;19.52;15.98;;;11.90;99.90;;;;;;5066469;28;20201;-70
2021/09/03 00:52:51;;;;;;;20.23;16.30;;;11.80;99.90;;;;;;5066694;28;20207;-70
2021/09/03 00:55:22;;;;;;;19.40;16.48;;;11.80;99.90;;;;;;5066193;28;20211;-71
2021/09/03 00:57:50;;;;;;;17.73;14.95;;;11.70;99.90;;;;;;5062340;28;20205;-72
2021/09/03 01:00:18;;;;;;;19.75;16.27;;;11.70;99.90;;;;;;5046772;28;20212;-71
2021/09/03 01:02:44;;;;;;;20.90;16.98;;;11.70;99.90;;;;;;5046747;28;20209;-71
2021/09/03 01:05:11;;;;;;;21.35;19.10;;;11.70;99.90;;;;;;5057079;28;20223;-71
2021/09/03 01:07:38;;;;;;;22.45;17.90;;;11.80;99.90;;;;;;5050270;28;20232;-71
2021/09/03 01:10:06;;;;;;;20.77;16.63;;;11.80;99.90;;;;;;5046750;28;20208;-71
2021/09/03 01:12:34;;;;;;;20.33;16.77;;;11.70;99.90;;;;;;5046590;28;20200;-71
2021/09/03 01:15:01;;;;;;;22.08;18.10;;;11.80;99.90;;;;;;5046315;28;20240;-71
2021/09/03 01:17:31;;;;;;;24.52;17.75;;;11.80;99.90;;;;;;5045914;28;20305;-71
2021/09/03 01:19:58;;;;;;;21.67;17.63;;;11.80;99.90;;;;;;5046085;28;20202;-71
2021/09/03 01:22:26;;;;;;;24.75;20.17;;;11.80;99.90;;;;;;5058892;28;20215;-71
2021/09/03 01:24:53;;;;;;;22.52;18.13;;;11.90;99.90;;;;;;5066339;28;20316;-71
2021/09/03 01:27:20;;;;;;;25.45;19.73;;;11.80;99.90;;;;;;5053864;28;20325;-70
2021/09/03 01:29:47;;;;;;;24.48;20.95;;;11.70;99.90;;;;;;5046563;28;20738;-70
2021/09/03 01:32:14;;;;;;;24.70;19.80;;;11.70;99.90;;;;;;5049959;28;20206;-71
2021/09/03 01:34:40;;;;;;;28.17;21.75;;;11.70;99.90;;;;;;5050239;28;20297;-70
2021/09/03 01:37:07;;;;;;;27.45;21.70;;;11.70;99.90;;;;;;5050086;28;20212;-71
2021/09/03 01:39:36;;;;;;;27.75;21.77;;;11.70;99.90;;;;;;5050604;28;20317;-70
2021/09/03 01:42:03;;;;;;;28.55;22.30;;;11.70;99.90;;;;;;5067313;28;20204;-71
2021/09/03 01:44:30;;;;;;;32.53;23.13;;;11.70;99.90;;;;;;5069953;28;20724;-70
2021/09/03 01:46:58;;;;;;;31.95;22.98;;;11.60;99.90;;;;;;5070270;28;20310;-70
2021/09/03 01:49:25;;;;;;;29.13;22.05;;;11.60;99.90;;;;;;5069439;28;21184;-70
2021/09/03 01:51:52;;;;;;;29.80;23.75;;;11.60;99.90;;;;;;5069923;28;20284;-71
2021/09/03 01:54:19;;;;;;;34.15;25.17;;;11.50;99.90;;;;;;5065937;28;20308;-70
2021/09/03 01:56:47;;;;;;;35.72;23.63;;;11.60;99.90;;;;;;5063686;28;20209;-71
2021/09/03 01:59:14;;;;;;;31.17;24.50;;;11.60;99.90;;;;;;5069007;28;20205;-71
2021/09/03 02:01:40;;;;;;;37.35;24.85;;;11.50;99.90;;;;;;5069984;28;20229;-70
2021/09/03 02:04:07;;;;;;;35.08;23.83;;;11.40;99.90;;;;;;5069714;28;20972;-70
2021/09/03 02:06:34;;;;;;;33.25;24.15;;;11.30;99.90;;;;;;5069614;28;20209;-71
2021/09/03 02:09:01;;;;;;;31.08;23.10;;;11.30;99.90;;;;;;5068014;28;20268;-71
2021/09/03 02:11:28;;;;;;;31.48;24.83;;;11.30;99.90;;;;;;5069828;28;20228;-71
2021/09/03 02:13:56;;;;;;;35.30;25.50;;;11.30;99.90;;;;;;5052228;28;20209;-71
2021/09/03 02:16:23;;;;;;;30.77;22.88;;;11.30;99.90;;;;;;5049295;28;20274;-71
2021/09/03 02:18:50;;;;;;;33.67;24.20;;;11.30;99.90;;;;;;5048531;28;20206;-71
2021/09/03 02:21:19;;;;;;;33.20;24.50;;;11.20;99.90;;;;;;5049642;28;20297;-69
2021/09/03 02:23:46;;;;;;;31.17;23.85;;;11.20;99.90;;;;;;5048405;28;20210;-71
2021/09/03 02:26:13;;;;;;;30.00;24.55;;;11.20;99.90;;;;;;5047971;28;20328;-70
2021/09/03 02:28:40;;;;;;;32.15;25.75;;;11.20;99.90;;;;;;5048743;28;20855;-70
2021/09/03 02:31:08;;;;;;;33.88;23.20;;;11.20;99.90;;;;;;5067787;28;20292;-70
2021/09/03 02:33:35;;;;;;;40.00;27.60;;;11.20;99.90;;;;;;5069228;28;20205;-71
2021/09/03 02:36:02;;;;;;;38.63;27.45;;;11.20;99.90;;;;;;5068502;28;20200;-70
2021/09/03 02:38:29;;;;;;;35.72;26.13;;;11.30;99.90;;;;;;5053522;28;20206;-70
2021/09/03 02:40:55;;;;;;;40.92;28.77;;;11.20;99.90;;;;;;5048549;28;20212;-70
2021/09/03 02:43:22;;;;;;;43.30;30.67;;;11.20;99.90;;;;;;5048908;28;20701;-70
2021/09/03 02:45:49;;;;;;;40.22;27.48;;;11.10;99.90;;;;;;5047863;28;20209;-70
2021/09/03 02:48:17;;;;;;;34.67;24.52;;;11.00;99.90;;;;;;5047778;28;20229;-70
2021/09/03 02:50:44;;;;;;;39.40;25.52;;;11.00;99.90;;;;;;5048850;28;20206;-70
2021/09/03 02:53:11;;;;;;;35.30;25.70;;;11.00;99.90;;;;;;5048442;28;20215;-71
2021/09/03 02:55:38;;;;;;;36.85;23.65;;;11.00;99.90;;;;;;5048330;28;20745;-71
2021/09/03 02:58:05;;;;;;;33.65;24.63;;;11.00;99.90;;;;;;5047548;28;20205;-70
2021/09/03 03:00:33;;;;;;;33.22;24.40;;;10.90;99.90;;;;;;5048387;28;20202;-71
2021/09/03 03:03:00;;;;;;;27.90;21.40;;;10.90;99.90;;;;;;5048114;28;20233;-71
2021/09/03 03:05:28;;;;;;;31.35;22.58;;;10.90;99.90;;;;;;5047817;28;20212;-71
2021/09/03 03:07:55;;;;;;;26.17;21.98;;;10.80;99.90;;;;;;5047678;28;20321;-69
2021/09/03 03:10:22;;;;;;;25.60;20.88;;;10.80;99.90;;;;;;5048292;28;20292;-70
2021/09/03 03:12:53;;;;;;;29.90;21.35;;;10.70;99.90;;;;;;5048140;28;20205;-70
2021/09/03 03:15:20;;;;;;;29.13;20.05;;;10.80;99.90;;;;;;5048131;28;20202;-70
2021/09/03 03:17:47;;;;;;;29.33;19.90;;;10.70;99.90;;;;;;5047538;28;20205;-70
2021/09/03 03:20:16;;;;;;;33.90;21.92;;;10.70;99.90;;;;;;5048056;28;20209;-70
2021/09/03 03:22:44;;;;;;;31.38;21.80;;;10.80;99.90;;;;;;5048253;28;20213;-70
2021/09/03 03:25:11;;;;;;;31.70;22.27;;;10.80;99.90;;;;;;5047757;28;20198;-69
2021/09/03 03:27:38;;;;;;;36.90;22.83;;;10.80;99.90;;;;;;5047621;28;20224;-70
2021/09/03 03:30:06;;;;;;;35.03;21.48;;;10.70;99.90;;;;;;5047993;28;20212;-70
2021/09/03 03:32:33;;;;;;;28.77;20.67;;;10.70;99.90;;;;;;5047974;28;20304;-69
2021/09/03 03:34:59;;;;;;;34.97;22.30;;;10.70;99.90;;;;;;5046599;28;20658;-71
2021/09/03 03:37:26;;;;;;;32.65;22.60;;;10.90;99.90;;;;;;5046756;28;20309;-70
2021/09/03 03:39:55;;;;;;;28.48;22.30;;;10.80;99.90;;;;;;5047671;28;20210;-70
2021/09/03 03:42:21;;;;;;;29.90;22.38;;;10.70;99.90;;;;;;5047190;28;20206;-70
2021/09/03 03:44:48;;;;;;;29.60;21.85;;;10.60;99.90;;;;;;5047312;28;20324;-70
2021/09/03 03:47:15;;;;;;;31.52;22.92;;;10.60;99.90;;;;;;5046874;28;20214;-70
2021/09/03 03:49:42;;;;;;;26.13;20.33;;;10.40;99.90;;;;;;5046925;28;20288;-70
2021/09/03 03:52:09;;;;;;;34.22;23.30;;;10.40;99.90;;;;;;5047888;28;20210;-69
2021/09/03 03:54:35;;;;;;;30.58;21.00;;;10.40;99.90;;;;;;5046746;28;20210;-70
2021/09/03 03:57:04;;;;;;;33.53;22.25;;;10.30;99.90;;;;;;5046499;28;20198;-70
2021/09/03 03:59:31;;;;;;;28.00;20.95;;;10.30;99.90;;;;;;5046966;28;20690;-70
2021/09/03 04:01:58;;;;;;;34.97;23.70;;;10.20;99.90;;;;;;5047602;28;20205;-69
2021/09/03 04:04:26;;;;;;;33.75;22.85;;;10.40;99.90;;;;;;5046798;28;20339;-71
2021/09/03 04:06:53;;;;;;;33.75;23.70;;;10.40;99.90;;;;;;5046588;28;20212;-70
2021/09/03 04:09:20;;;;;;;32.95;24.77;;;10.60;99.90;;;;;;5046538;28;20783;-70
2021/09/03 04:11:47;;;;;;;38.55;24.15;;;10.50;99.90;;;;;;5046547;28;20697;-70
2021/09/03 04:14:19;;;;;;;31.20;23.45;;;10.50;99.90;;;;;;5047252;28;20220;-69
2021/09/03 04:16:46;;;;;;;38.25;25.02;;;10.40;99.90;;;;;;5046339;28;20770;-70
2021/09/03 04:19:14;;;;;;;29.02;22.33;;;10.40;99.90;;;;;;5047424;28;20216;-69
2021/09/03 04:21:41;;;;;;;30.73;21.63;;;10.30;99.90;;;;;;5047075;28;20205;-70
2021/09/03 04:24:08;;;;;;;31.38;21.42;;;10.30;99.90;;;;;;5047074;28;20213;-70
2021/09/03 04:26:35;;;;;;;28.42;21.27;;;10.30;99.90;;;;;;5046962;28;20220;-69
2021/09/03 04:29:02;;;;;;;31.65;21.73;;;10.20;99.90;;;;;;5056325;28;20328;-70
2021/09/03 04:31:30;;;;;;;34.03;22.25;;;10.30;99.90;;;;;;5064512;28;20198;-69
2021/09/03 04:33:57;;;;;;;30.27;21.73;;;10.40;99.90;;;;;;5046927;28;20202;-69
2021/09/03 04:36:24;;;;;;;35.00;23.42;;;10.50;99.90;;;;;;5046460;28;20308;-70
2021/09/03 04:38:51;;;;;;;36.83;23.83;;;10.40;99.90;;;;;;5045983;28;20255;-69
2021/09/03 04:41:18;;;;;;;32.25;22.23;;;10.50;99.90;;;;;;5046548;28;20738;-69
2021/09/03 04:43:45;;;;;;;34.30;21.90;;;10.40;99.90;;;;;;5046816;28;20209;-69
2021/09/03 04:46:11;;;;;;;32.20;22.05;;;10.30;99.90;;;;;;5055466;28;20200;-69
2021/09/03 04:48:40;;;;;;;28.00;21.08;;;10.20;99.90;;;;;;5046037;28;20798;-68
2021/09/03 04:51:06;;;;;;;32.38;22.17;;;10.20;99.90;;;;;;5046718;28;20216;-69
2021/09/03 04:53:33;;;;;;;33.85;22.20;;;10.20;99.90;;;;;;5046343;28;20227;-69
2021/09/03 04:56:00;;;;;;;32.97;23.33;;;10.20;99.90;;;;;;5058311;28;20205;-69
2021/09/03 04:58:27;;;;;;;33.35;22.52;;;10.20;99.90;;;;;;5046246;28;20745;-69
2021/09/03 05:00:54;;;;;;;31.08;20.52;;;10.20;99.90;;;;;;5054117;28;20280;-68
2021/09/03 05:03:20;;;;;;;29.52;21.05;;;10.20;99.90;;;;;;5054120;28;20206;-70
2021/09/03 05:05:49;;;;;;;27.60;20.92;;;10.20;99.90;;;;;;5046989;28;20201;-69
2021/09/03 05:08:15;;;;;;;29.73;21.17;;;10.20;99.90;;;;;;5050306;28;20249;-69
2021/09/03 05:10:42;;;;;;;27.42;19.98;;;10.20;99.90;;;;;;5050919;28;20198;-69
2021/09/03 05:13:09;;;;;;;29.35;20.77;;;10.30;99.90;;;;;;5050367;28;20667;-69
2021/09/03 05:15:39;;;;;;;30.60;20.20;;;10.30;99.90;;;;;;5058098;28;20296;-69
2021/09/03 05:18:06;;;;;;;25.50;20.40;;;10.40;99.90;;;;;;5069437;28;20290;-69
2021/09/03 05:20:33;;;;;;;22.73;19.20;;;10.40;99.90;;;;;;5055807;28;20205;-71
2021/09/03 05:23:01;;;;;;;24.65;20.17;;;10.50;99.90;;;;;;5050365;28;20301;-70
2021/09/03 05:25:28;;;;;;;26.23;20.15;;;10.50;99.90;;;;;;5048932;28;20324;-70
2021/09/03 05:27:55;;;;;;;27.52;20.13;;;10.60;99.90;;;;;;5049714;28;20217;-70
2021/09/03 05:30:22;;;;;;;22.30;18.45;;;10.90;99.90;;;;;;5049909;28;20780;-70
2021/09/03 05:32:49;;;;;;;22.45;17.70;;;11.10;99.90;;;;;;5049975;28;20344;-71
2021/09/03 05:35:15;;;;;;;19.42;17.42;;;11.40;99.90;;;;;;5050280;28;20301;-70
2021/09/03 05:37:43;;;;;;;21.00;15.68;;;11.40;99.90;;;;;;5065417;28;20215;-69
2021/09/03 05:40:12;;;;;;;20.02;16.40;;;11.40;99.90;;;;;;5069299;28;20284;-71
2021/09/03 05:42:39;;;;;;;20.85;15.75;;;11.40;99.90;;;;;;5069781;28;20292;-71
2021/09/03 05:45:06;;;;;;;17.13;15.32;;;11.40;99.90;;;;;;5053326;28;20202;-71
2021/09/03 05:47:33;;;;;;;17.23;15.10;;;11.40;99.90;;;;;;5066410;28;20208;-69
2021/09/03 05:50:00;;;;;;;19.38;15.63;;;11.50;99.90;;;;;;5069988;28;20236;-70
2021/09/03 05:52:27;;;;;;;18.48;16.15;;;11.40;99.90;;;;;;5070503;28;20292;-70
2021/09/03 05:54:54;;;;;;;20.58;16.33;;;11.50;99.90;;;;;;5052078;28;20714;-71
2021/09/03 05:57:25;;;;;;;18.45;16.50;;;11.70;99.90;;;;;;5048515;28;20344;-71
2021/09/03 05:59:51;;;;;;;20.38;16.73;;;11.90;99.90;;;;;;5049246;28;20190;-71
2021/09/03 06:02:18;;;;;;;18.67;16.15;;;12.10;99.90;;;;;;5049538;28;20198;-71
2021/09/03 06:04:45;;;;;;;15.82;13.98;;;12.40;99.90;;;;;;5047937;28;20225;-71
2021/09/03 06:07:12;;;;;;;16.08;13.40;;;12.50;99.90;;;;;;5048675;28;20806;-70
2021/09/03 06:09:39;;;;;;;14.75;13.20;;;12.50;99.90;;;;;;5049303;28;20259;-71
2021/09/03 06:12:06;;;;;;;15.10;13.57;;;12.70;99.90;;;;;;5067502;28;20223;-70
2021/09/03 06:14:35;;;;;;;15.55;13.20;;;13.10;99.90;;;;;;5063997;28;20194;-70
2021/09/03 06:17:02;;;;;;;17.45;15.68;;;13.40;99.90;;;;;;5048690;28;20208;-72
2021/09/03 06:19:29;;;;;;;17.65;15.70;;;13.20;99.90;;;;;;5048741;28;20209;-70
2021/09/03 06:21:57;;;;;;;16.67;14.95;;;13.20;99.90;;;;;;5054415;22;20201;-73
2021/09/03 06:24:29;;;;;;;18.85;16.92;;;13.30;99.90;;;;;;5019101;28;20231;-72
2021/09/03 06:27:43;;;;;;;31.67;17.10;;;13.50;99.90;;;;;;5022524;28;20746;-71
2021/09/03 06:30:19;;;;;;;14.75;13.25;;;13.40;99.90;;;;;;5027428;28;20217;-72
2021/09/03 06:33:01;;;;;;;;;;;;;;;;;;;;;
2021/09/03 06:35:28;;;;;;;15.27;13.73;;;13.50;99.90;;;;;;5022024;28;20597;-72
2021/09/03 06:37:55;;;;;;;15.70;14.07;;;13.70;99.90;;;;;;5030781;23;20209;-73
2021/09/03 06:40:25;;;;;;;14.32;12.90;;;13.90;99.90;;;;;;5007052;28;20211;-73
2021/09/03 06:42:52;;;;;;;15.98;14.48;;;13.90;99.90;;;;;;5007883;28;20207;-74
2021/09/03 06:45:20;;;;;;;14.00;12.65;;;14.30;99.90;;;;;;5007244;28;20203;-73
2021/09/03 06:47:48;;;;;;;15.15;13.55;;;14.60;99.90;;;;;;5006783;28;20225;-73
2021/09/03 06:50:16;;;;;;;13.57;12.27;;;15.00;99.90;;;;;;5007759;28;20227;-71
2021/09/03 06:52:43;;;;;;;15.40;13.80;;;15.20;99.90;;;;;;5008193;28;20731;-71
2021/09/03 06:55:11;;;;;;;13.05;11.80;;;15.30;99.90;;;;;;5007827;28;20676;-70
2021/09/03 06:57:39;;;;;;;14.25;12.85;;;15.20;99.90;;;;;;5006625;28;20215;-73
2021/09/03 07:00:08;;;;;;;14.20;12.80;;;15.20;99.90;;;;;;5004506;28;20206;-71
2021/09/03 07:02:36;;;;;;;13.43;12.13;;;15.30;99.90;;;;;;5004037;28;20556;-73
2021/09/03 07:05:03;;;;;;;12.43;11.32;;;15.30;99.90;;;;;;5006621;28;20206;-73
2021/09/03 07:07:30;;;;;;;14.32;12.23;;;15.30;99.90;;;;;;5001323;28;20299;-73
2021/09/03 07:10:00;;;;;;;18.13;10.93;;;15.30;99.90;;;;;;5006906;28;20725;-73
2021/09/03 07:12:27;;;;;;;12.68;11.45;;;15.70;99.90;;;;;;5005943;28;20238;-71
2021/09/03 07:14:53;;;;;;;12.35;11.15;;;16.30;99.90;;;;;;5006352;28;20202;-73
2021/09/03 07:17:20;;;;;;;11.67;10.67;;;17.40;99.90;;;;;;5006186;28;20292;-73
2021/09/03 07:19:49;;;;;;;12.40;11.20;;;18.60;99.90;;;;;;5006176;28;20765;-73
2021/09/03 07:22:16;;;;;;;10.93;9.87;;;19.30;98.80;;;;;;5008173;28;20628;-73
2021/09/03 07:24:42;;;;;;;10.27;9.33;;;19.80;98.40;;;;;;5007784;28;20959;-74
2021/09/03 07:27:09;;;;;;;10.47;9.57;;;21.00;96.10;;;;;;5001233;28;20646;-73
2021/09/03 07:29:38;;;;;;;10.50;9.60;;;20.70;95.90;;;;;;5006143;28;20701;-73
2021/09/03 07:32:06;;;;;;;9.10;8.30;;;20.60;96.20;;;;;;5005986;28;20652;-72
2021/09/03 07:34:33;;;;;;;9.40;8.60;;;20.90;95.30;;;;;;5006257;28;20638;-73
2021/09/03 07:37:01;;;;;;;9.80;8.90;;;20.20;95.20;;;;;;5006535;28;20729;-73
2021/09/03 07:39:29;;;;;;;10.10;9.10;;;20.90;95.20;;;;;;5006190;28;20642;-73
2021/09/03 07:41:56;;;;;;;10.00;9.17;;;21.60;94.20;;;;;;5006576;28;20637;-73
2021/09/03 07:44:23;;;;;;;9.40;8.60;;;21.50;94.30;;;;;;5006573;28;20636;-73
2021/09/03 07:46:50;;;;;;;9.43;8.47;;;22.00;92.80;;;;;;5005589;28;20633;-72
2021/09/03 07:49:16;;;;;;;9.67;8.77;;;20.70;94.10;;;;;;5005479;28;20875;-73
2021/09/03 07:51:43;;;;;;;9.90;9.00;;;20.10;95.50;;;;;;5008086;28;21048;-72
2021/09/03 07:54:14;;;;;;;10.10;9.20;;;20.00;95.70;;;;;;5005944;28;20645;-73
2021/09/03 07:56:43;;;;;;;10.07;9.27;;;19.60;96.30;;;;;;5004350;28;20632;-74
2021/09/03 07:59:10;;;;;;;10.00;9.10;;;19.10;97.40;;;;;;4997125;28;20652;-74
2021/09/03 08:01:37;;;;;;;10.27;9.47;;;18.70;97.10;;;;;;4997843;28;20640;-73
2021/09/03 08:04:04;;;;;;;10.90;9.90;;;18.20;98.70;;;;;;5002866;28;20633;-73
2021/09/03 08:06:31;;;;;;;10.80;9.83;;;18.00;99.50;;;;;;5005080;28;20634;-73
2021/09/03 08:08:57;;;;;;;13.07;10.30;;;18.00;99.90;;;;;;5004802;28;20673;-73
2021/09/03 08:11:26;;;;;;;10.77;9.67;;;17.70;99.70;;;;;;4999204;28;20696;-73
2021/09/03 08:13:52;;;;;;;11.07;10.05;;;17.60;99.70;;;;;;5005045;28;20630;-71
2021/09/03 08:16:19;;;;;;;10.85;9.73;;;17.60;99.90;;;;;;5004547;28;20209;-72
2021/09/03 08:18:46;;;;;;;9.30;8.50;;;17.50;99.90;;;;;;5002403;28;20203;-73
2021/09/03 08:21:14;;;;;;;11.18;10.07;;;17.30;99.90;;;;;;5005117;28;20207;-73
2021/09/03 08:23:47;;;;;;;11.32;10.32;;;17.40;99.90;;;;;;4987344;28;20203;-73
2021/09/03 08:26:14;;;;;;;10.98;9.98;;;17.40;99.90;;;;;;5005248;28;20219;-73
2021/09/03 08:28:42;;;;;;;10.35;9.35;;;17.40;99.90;;;;;;5004639;28;20282;-73
2021/09/03 08:31:09;;;;;;;9.55;8.68;;;17.50;99.90;;;;;;5004620;28;20241;-72
2021/09/03 08:33:39;;;;;;;11.88;9.43;;;17.60;99.90;;;;;;5002927;28;20205;-74
2021/09/03 08:36:09;;;;;;;10.90;9.90;;;17.80;99.90;;;;;;5004637;28;21170;-74
2021/09/03 08:38:38;;;;;;;10.95;9.95;;;17.80;99.90;;;;;;4999941;28;20687;-74
2021/09/03 08:41:04;;;;;;;10.60;9.60;;;17.80;99.30;;;;;;5006119;28;20230;-73
2021/09/03 08:43:31;;;;;;;11.30;10.07;;;17.90;99.00;;;;;;5010025;28;20301;-73
2021/09/03 08:46:00;;;;;;;10.27;9.27;;;18.00;99.70;;;;;;5009585;28;20290;-73
2021/09/03 08:48:27;;;;;;;10.55;9.65;;;18.10;99.90;;;;;;5007863;28;20286;-73
2021/09/03 08:50:56;;;;;;;9.95;9.10;;;17.90;99.60;;;;;;5006005;28;20241;-74
2021/09/03 08:54:14;;;;;;;10.82;9.82;;;17.90;99.90;;;;;;5001491;28;20211;-73
2021/09/03 08:56:40;;;;;;;10.88;9.88;;;18.10;99.90;;;;;;4977443;28;20692;-71
2021/09/03 08:59:07;;;;;;;10.23;9.25;;;18.10;99.00;;;;;;5008474;28;20269;-72
2021/09/03 09:01:36;;;;;;;10.50;9.50;;;18.20;99.20;;;;;;5004285;28;20230;-72
2021/09/03 09:04:13;;;;;;;9.88;9.02;;;18.20;99.90;;;;;;5008585;28;20215;-73
2021/09/03 09:06:41;;;;;;;10.20;9.33;;;18.20;99.90;;;;;;5007681;28;20331;-73
2021/09/03 09:09:08;;;;;;;11.00;10.00;;;18.40;99.10;;;;;;5008351;28;20636;-72
2021/09/03 09:11:37;;;;;;;10.13;9.13;;;18.60;99.80;;;;;;5007000;28;21676;-73
2021/09/03 09:14:07;;;;;;;9.77;8.70;;;19.20;99.10;;;;;;5007611;28;20638;-72
2021/09/03 09:17:04;;;;;;;10.20;9.30;;;19.50;98.60;;;;;;5008321;28;20618;-73
2021/09/03 09:19:45;;;;;;;9.67;8.77;;;20.10;96.90;;;;;;5008414;28;20677;-72
2021/09/03 09:22:12;;;;;;;9.17;8.27;;;20.50;96.40;;;;;;5008399;28;20701;-73
2021/09/03 09:24:51;;;;;;;11.80;8.57;;;21.20;95.20;;;;;;5006512;28;20725;-73
2021/09/03 09:27:26;;;;;;;12.00;8.63;;;21.70;94.50;;;;;;5004850;28;20633;-72
2021/09/03 09:29:54;;;;;;;9.47;8.50;;;22.60;93.30;;;;;;4996526;28;20662;-72
2021/09/03 09:32:28;;;;;;;9.00;8.20;;;23.10;92.60;;;;;;5008337;28;20731;-71
2021/09/03 09:34:57;;;;;;;9.50;8.80;;;23.90;91.30;;;;;;5005376;28;20724;-72
2021/09/03 09:37:24;;;;;;;8.47;7.67;;;24.40;90.00;;;;;;5001270;28;20652;-72
2021/09/03 09:40:01;;;;;;;8.97;8.17;;;25.10;87.50;;;;;;5007521;28;20649;-72
2021/09/03 09:42:30;;;;;;;8.57;7.77;;;25.90;85.20;;;;;;5008169;28;21469;-72
2021/09/03 09:45:03;;;;;;;8.13;7.43;;;25.70;85.70;;;;;;5006332;28;20633;-72
2021/09/03 09:47:37;;;;;;;8.80;8.10;;;26.20;84.20;;;;;;4996998;28;20634;-73
2021/09/03 09:50:23;;;;;;;8.70;7.97;;;27.40;79.40;;;;;;5001844;28;20740;-73
2021/09/03 09:52:50;;;;;;;7.27;6.77;;;27.30;78.60;;;;;;5005866;28;20720;-70
2021/09/03 09:55:17;;;;;;;9.00;8.10;;;26.90;83.70;;;;;;5008380;28;20620;-70
2021/09/03 09:57:50;;;;;;;7.63;7.03;;;26.70;80.00;;;;;;5008390;28;21368;-69
2021/09/03 10:00:20;;;;;;;8.33;7.73;;;27.00;78.60;;;;;;5006993;28;20664;-69
2021/09/03 10:02:49;;;;;;;8.57;7.77;;;26.80;81.50;;;;;;5005601;28;21273;-68
2021/09/03 10:05:20;;;;;;;8.60;7.80;;;27.30;78.60;;;;;;4998394;28;20657;-71
2021/09/03 10:07:47;;;;;;;7.70;7.10;;;27.10;78.60;;;;;;5001082;28;20661;-72
2021/09/03 10:10:14;;;;;;;8.20;7.50;;;26.80;79.60;;;;;;5001017;28;20628;-73
2021/09/03 10:12:41;;;;;;;7.70;7.10;;;26.40;81.90;;;;;;5007715;28;20807;-71
2021/09/03 10:15:09;;;;;;;8.07;7.47;;;26.70;79.80;;;;;;5007100;28;20734;-73
2021/09/03 10:17:36;;;;;;;8.40;7.80;;;26.80;79.60;;;;;;5007224;28;20630;-74
2021/09/03 10:20:06;;;;;;;9.17;8.37;;;26.30;82.30;;;;;;5005613;28;20685;-72
2021/09/03 10:22:42;;;;;;;8.50;7.70;;;25.60;83.60;;;;;;5005811;28;20642;-69
2021/09/03 10:25:11;;;;;;;8.50;7.83;;;24.80;88.50;;;;;;5005890;28;20627;-71
2021/09/03 10:27:38;;;;;;;9.80;8.70;;;25.40;83.50;;;;;;5006614;28;20636;-71
2021/09/03 10:30:16;;;;;;;8.37;7.67;;;25.30;83.70;;;;;;5007237;28;20748;-71
2021/09/03 10:32:46;;;;;;;8.73;7.43;;;25.70;83.10;;;;;;5006826;28;21096;-71
2021/09/03 10:35:19;;;;;;;8.93;8.23;;;25.60;83.90;;;;;;5005976;28;20986;-71
2021/09/03 10:37:47;;;;;;;10.10;9.10;;;25.40;82.90;;;;;;5006560;28;20986;-73
2021/09/03 10:40:23;;;;;;;8.90;8.20;;;25.00;86.10;;;;;;5006678;28;20694;-73
2021/09/03 10:42:55;;;;;;;8.77;8.17;;;24.70;86.30;;;;;;5008530;28;20704;-73
2021/09/03 10:45:30;;;;;;;8.33;7.63;;;25.00;83.90;;;;;;5008157;28;20614;-68
2021/09/03 10:48:12;;;;;;;8.60;7.87;;;24.70;85.90;;;;;;5007045;28;20619;-71
2021/09/03 10:50:50;;;;;;;8.50;7.80;;;24.90;85.00;;;;;;5001493;28;20612;-71
2021/09/03 10:53:20;;;;;;;8.23;7.43;;;25.10;82.60;;;;;;5006545;28;20614;-68
2021/09/03 10:55:53;;;;;;;7.80;7.27;;;25.10;83.00;;;;;;5003602;28;20759;-71
2021/09/03 10:58:44;;;;;;;15.90;14.40;;;24.90;83.40;;;;;;5003885;28;20646;-71
2021/09/03 11:01:52;;;;;;;13.03;11.93;;;24.50;88.50;;;;;;5006490;28;20703;-72
2021/09/03 11:04:23;;;;;;;8.23;7.60;;;24.50;86.10;;;;;;5004091;28;21235;-71
2021/09/03 11:07:11;;;;;;;8.27;7.60;;;24.30;88.60;;;;;;5003219;28;20640;-72
2021/09/03 11:09:44;;;;;;;8.27;7.67;;;24.20;86.80;;;;;;5003264;28;21002;-69
2021/09/03 11:12:21;;;;;;;7.70;7.10;;;24.00;89.00;;;;;;5009035;28;20680;-71
2021/09/03 11:14:53;;;;;;;7.83;7.03;;;23.90;85.10;;;;;;5006991;28;20744;-70
2021/09/03 11:17:21;;;;;;;8.23;7.63;;;23.60;87.50;;;;;;5002887;28;20641;-71
2021/09/03 11:19:48;;;;;;;8.17;7.53;;;23.50;87.20;;;;;;5004221;28;20634;-71
2021/09/03 11:22:20;;;;;;;8.30;7.60;;;23.40;87.70;;;;;;5000995;28;20645;-71
2021/09/03 11:24:56;;;;;;;8.97;7.60;;;23.10;87.70;;;;;;5010118;28;20629;-72
2021/09/03 11:27:29;;;;;;;7.00;6.27;;;23.30;90.40;;;;;;5008207;28;20629;-72
2021/09/03 11:30:01;;;;;;;7.50;6.90;;;23.20;87.60;;;;;;5009743;28;20668;-73
2021/09/03 11:32:29;;;;;;;7.90;7.30;;;23.00;87.70;;;;;;5008997;28;20622;-73
2021/09/03 11:34:59;;;;;;;8.20;7.40;;;23.20;87.50;;;;;;5007417;28;21004;-72
2021/09/03 11:37:31;;;;;;;7.40;6.70;;;23.30;86.30;;;;;;5007049;28;20660;-72
2021/09/03 11:40:11;;;;;;;7.63;7.00;;;23.30;87.50;;;;;;5007372;28;20649;-71
2021/09/03 11:42:41;;;;;;;7.63;6.90;;;23.40;86.90;;;;;;5006867;28;20627;-72
2021/09/03 11:45:13;;;;;;;7.17;6.60;;;23.50;87.40;;;;;;5006610;28;20644;-71
2021/09/03 11:47:46;;;;;;;7.53;6.93;;;23.40;86.90;;;;;;5003710;28;20631;-71
2021/09/03 11:50:15;;;;;;;7.10;6.60;;;23.20;87.30;;;;;;4999140;28;20745;-72
2021/09/03 11:52:50;;;;;;;6.47;5.87;;;23.10;86.60;;;;;;5008829;28;21041;-73
2021/09/03 11:55:18;;;;;;;7.87;7.27;;;23.20;85.30;;;;;;4997102;28;20669;-71
2021/09/03 11:57:57;;;;;;;7.10;6.40;;;23.30;88.70;;;;;;5002498;28;20642;-72
2021/09/03 12:00:27;;;;;;;7.50;6.80;;;23.30;86.90;;;;;;5001022;28;20696;-72
2021/09/03 12:02:55;;;;;;;7.30;6.70;;;23.20;84.00;;;;;;5000055;28;20637;-72
2021/09/03 12:05:23;;;;;;;7.70;7.10;;;23.20;83.90;;;;;;5004212;28;20644;-72
2021/09/03 12:08:26;;;;;;;8.37;7.57;;;23.30;87.00;;;;;;5001808;28;20646;-72
2021/09/03 12:10:56;;;;;;;7.80;7.10;;;23.40;87.10;;;;;;4971809;28;20646;-72
2021/09/03 12:13:35;;;;;;;6.80;6.30;;;23.60;84.50;;;;;;5004488;28;21217;-72
2021/09/03 12:16:08;;;;;;;6.83;6.30;;;23.60;84.90;;;;;;5003994;28;21031;-72
2021/09/03 12:18:38;;;;;;;7.47;6.77;;;23.80;89.10;;;;;;5001175;28;20657;-69
2021/09/03 12:21:08;;;;;;;7.30;6.70;;;23.80;87.30;;;;;;5003847;28;20685;-69
2021/09/03 12:23:42;;;;;;;6.10;5.63;;;23.60;84.50;;;;;;5004198;28;20650;-68
2021/09/03 12:26:14;;;;;;;8.43;6.37;;;23.70;83.50;;;;;;5002031;28;20723;-69
2021/09/03 12:28:43;;;;;;;6.83;6.33;;;23.60;80.80;;;;;;5004879;28;20977;-69
2021/09/03 12:31:14;;;;;;;6.77;6.17;;;23.70;84.80;;;;;;5005195;28;20638;-69
2021/09/03 12:33:49;;;;;;;6.80;6.30;;;23.90;84.10;;;;;;5006190;28;20633;-69
2021/09/03 12:36:20;;;;;;;6.97;6.47;;;24.00;84.50;;;;;;5002126;28;20639;-69
2021/09/03 12:38:55;;;;;;;7.50;6.87;;;24.00;84.50;;;;;;5003178;28;20638;-69
2021/09/03 12:41:28;;;;;;;6.90;6.10;;;24.20;84.90;;;;;;5000669;28;20683;-69
2021/09/03 12:43:57;;;;;;;7.27;6.60;;;24.10;82.70;;;;;;5003366;28;20655;-69
2021/09/03 12:46:25;;;;;;;7.10;6.50;;;24.10;84.30;;;;;;5000805;28;20677;-70